createdAt,value
2024-05-09T00:01:52.633Z,11.30
2024-05-09T00:04:40.658Z,11.30
2024-05-09T00:07:28.116Z,11.30
2024-05-09T00:10:25.038Z,11.30
2024-05-09T00:13:04.572Z,11.30
2024-05-09T00:15:51.739Z,11.20
2024-05-09T00:18:39.440Z,11.20
2024-05-09T00:21:26.981Z,11.00
2024-05-09T00:24:14.747Z,10.90
2024-05-09T00:27:01.982Z,10.70
2024-05-09T00:29:49.402Z,10.60
2024-05-09T00:32:37.001Z,10.50
2024-05-09T00:35:24.908Z,10.60
2024-05-09T00:38:12.155Z,10.50
2024-05-09T00:40:59.456Z,10.60
2024-05-09T00:43:46.879Z,10.60
2024-05-09T00:46:34.645Z,10.70
2024-05-09T00:49:23.614Z,10.70
2024-05-09T00:52:12.031Z,10.70
2024-05-09T00:55:00.244Z,10.70
2024-05-09T00:57:48.394Z,10.70
2024-05-09T01:00:39.735Z,10.70
2024-05-09T01:03:25.668Z,10.70
2024-05-09T01:06:13.612Z,10.70
2024-05-09T01:09:00.878Z,10.60
2024-05-09T01:11:48.182Z,10.60
2024-05-09T01:14:39.778Z,10.70
2024-05-09T01:17:27.924Z,10.60
2024-05-09T01:20:20.282Z,10.40
2024-05-09T01:23:08.114Z,10.30
2024-05-09T01:25:55.827Z,10.20
2024-05-09T01:28:43.227Z,10.10
2024-05-09T01:31:30.311Z,10.10
2024-05-09T01:34:17.745Z,10.10
2024-05-09T01:37:05.221Z,10.20
2024-05-09T01:39:52.496Z,10.20
2024-05-09T01:42:40.037Z,10.20
2024-05-09T01:45:27.529Z,10.10
2024-05-09T01:48:15.063Z,10.00
2024-05-09T01:51:02.522Z,10.00
2024-05-09T01:53:50.126Z,10.00
2024-05-09T01:56:37.446Z,10.00
2024-05-09T01:59:25.122Z,10.00
2024-05-09T02:02:13.619Z,10.00
2024-05-09T02:05:01.302Z,9.90
2024-05-09T02:07:48.630Z,9.90
2024-05-09T02:10:35.953Z,9.90
2024-05-09T02:13:23.556Z,9.90
2024-05-09T02:16:15.088Z,9.90
2024-05-09T02:19:03.020Z,9.90
2024-05-09T02:21:50.431Z,9.90
2024-05-09T02:24:37.953Z,9.80
2024-05-09T02:27:25.397Z,9.80
2024-05-09T02:30:18.987Z,9.60
2024-05-09T02:33:01.890Z,9.50
2024-05-09T02:35:49.250Z,9.30
2024-05-09T02:38:37.522Z,9.10
2024-05-09T02:41:25.027Z,9.10
2024-05-09T02:44:12.311Z,9.10
2024-05-09T02:46:59.723Z,9.10
2024-05-09T02:49:47.239Z,9.10
2024-05-09T02:52:34.747Z,9.10
2024-05-09T02:55:22.096Z,9.10
2024-05-09T02:58:10.191Z,9.20
2024-05-09T03:00:58.039Z,9.20
2024-05-09T03:03:47.308Z,9.20
2024-05-09T03:06:34.495Z,9.20
2024-05-09T03:09:23.707Z,9.20
2024-05-09T03:12:11.632Z,9.30
2024-05-09T03:14:59.216Z,9.30
2024-05-09T03:17:46.657Z,9.30
2024-05-09T03:20:35.891Z,9.40
2024-05-09T03:23:23.320Z,9.40
2024-05-09T03:26:17.963Z,9.40
2024-05-09T03:29:05.230Z,9.30
2024-05-09T03:31:52.951Z,9.30
2024-05-09T03:34:40.757Z,9.20
2024-05-09T03:37:28.176Z,9.20
2024-05-09T03:40:20.886Z,9.20
2024-05-09T03:43:04.686Z,9.30
2024-05-09T03:45:52.121Z,9.20
2024-05-09T03:48:39.874Z,9.10
2024-05-09T03:51:27.266Z,9.00
2024-05-09T03:54:14.894Z,8.90
2024-05-09T03:57:02.397Z,8.90
2024-05-09T03:59:50.069Z,8.90
2024-05-09T04:02:37.527Z,8.90
2024-05-09T04:05:26.229Z,8.90
2024-05-09T04:08:15.261Z,8.80
2024-05-09T04:11:03.296Z,8.80
2024-05-09T04:13:50.771Z,8.80
2024-05-09T04:16:38.123Z,8.70
2024-05-09T04:19:25.915Z,8.70
2024-05-09T04:22:13.455Z,8.70
2024-05-09T04:25:01.020Z,8.70
2024-05-09T04:27:48.276Z,8.80
2024-05-09T04:30:39.353Z,8.90
2024-05-09T04:33:25.334Z,9.00
2024-05-09T04:36:12.991Z,9.10
2024-05-09T04:39:00.460Z,9.20
2024-05-09T04:41:47.973Z,9.20
2024-05-09T04:44:35.605Z,9.30
2024-05-09T04:47:23.199Z,9.40
2024-05-09T04:50:14.532Z,9.40
2024-05-09T04:52:59.626Z,9.50
2024-05-09T04:55:47.162Z,9.60
2024-05-09T04:58:34.733Z,9.70
2024-05-09T05:01:22.182Z,9.80
2024-05-09T05:04:09.833Z,9.90
2024-05-09T05:06:59.734Z,10.00
2024-05-09T05:09:46.356Z,10.10
2024-05-09T05:12:51.420Z,10.20
2024-05-09T05:15:39.186Z,10.30
2024-05-09T05:18:28.090Z,10.50
2024-05-09T05:21:15.738Z,10.60
2024-05-09T05:24:03.048Z,10.70
2024-05-09T05:26:50.771Z,10.80
2024-05-09T05:29:38.326Z,11.00
2024-05-09T05:32:25.792Z,11.20
2024-05-09T05:35:13.447Z,11.30
2024-05-09T05:38:00.606Z,11.40
2024-05-09T05:40:47.560Z,11.60
2024-05-09T05:43:35.368Z,11.70
2024-05-09T05:46:22.881Z,11.80
2024-05-09T05:49:10.567Z,11.90
2024-05-09T05:51:58.290Z,12.00
2024-05-09T05:54:47.174Z,12.10
2024-05-09T05:57:34.643Z,12.20
2024-05-09T06:00:29.535Z,12.30
2024-05-09T06:03:13.548Z,12.40
2024-05-09T06:06:03.897Z,12.60
2024-05-09T06:08:52.174Z,12.50
2024-05-09T06:11:41.541Z,12.60
2024-05-09T06:14:29.489Z,12.60
2024-05-09T06:17:16.770Z,12.70
2024-05-09T06:20:05.828Z,12.80
2024-05-09T06:22:53.513Z,12.90
2024-05-09T06:25:41.746Z,13.00
2024-05-09T06:28:28.959Z,13.30
2024-05-09T06:31:16.286Z,13.50
2024-05-09T06:34:04.224Z,13.60
2024-05-09T06:36:51.998Z,13.80
2024-05-09T06:39:39.242Z,13.90
2024-05-09T06:42:26.819Z,14.10
2024-05-09T06:45:15.549Z,14.20
2024-05-09T06:48:03.086Z,14.30
2024-05-09T06:50:51.269Z,14.40
2024-05-09T06:53:40.669Z,14.60
2024-05-09T06:56:27.719Z,14.70
2024-05-09T06:59:15.520Z,14.80
2024-05-09T07:02:04.544Z,14.90
2024-05-09T07:04:52.046Z,14.90
2024-05-09T07:07:39.363Z,15.10
2024-05-09T07:10:32.860Z,15.20
2024-05-09T07:13:16.077Z,15.30
2024-05-09T07:16:03.865Z,15.40
2024-05-09T07:18:53.279Z,15.50
2024-05-09T07:21:42.453Z,15.50
2024-05-09T07:24:29.713Z,15.70
2024-05-09T07:27:17.282Z,15.80
2024-05-09T07:30:07.115Z,16.00
2024-05-09T07:32:55.864Z,16.20
2024-05-09T07:35:43.501Z,16.30
2024-05-09T07:38:31.021Z,16.30
2024-05-09T07:41:18.327Z,16.40
2024-05-09T07:44:05.947Z,16.60
2024-05-09T07:48:13.717Z,16.50
2024-05-09T07:51:32.283Z,16.60
2024-05-09T07:53:32.656Z,16.70
2024-05-09T07:55:20.218Z,16.80
2024-05-09T07:58:07.914Z,16.90
2024-05-09T08:00:55.938Z,17.00
2024-05-09T08:03:43.625Z,17.20
2024-05-09T08:06:32.174Z,17.20
2024-05-09T08:09:21.406Z,17.30
2024-05-09T08:12:12.615Z,17.50
2024-05-09T08:14:59.840Z,17.60
2024-05-09T08:17:47.498Z,17.80
2024-05-09T08:20:35.497Z,17.90
2024-05-09T08:23:23.610Z,18.10
2024-05-09T08:26:10.937Z,18.20
2024-05-09T08:28:58.410Z,18.30
2024-05-09T08:31:46.055Z,18.40
2024-05-09T08:34:33.486Z,18.40
2024-05-09T08:37:23.484Z,18.40
2024-05-09T08:40:19.914Z,18.60
2024-05-09T08:43:05.499Z,18.60
2024-05-09T08:45:52.649Z,18.70
2024-05-09T08:48:42.450Z,18.90
2024-05-09T08:51:30.317Z,19.00
2024-05-09T08:54:19.558Z,19.00
2024-05-09T08:57:07.851Z,19.10
2024-05-09T08:59:56.442Z,19.20
2024-05-09T09:02:45.728Z,19.10
2024-05-09T09:05:36.040Z,19.20
2024-05-09T09:08:23.799Z,19.30
2024-05-09T09:11:11.394Z,19.40
2024-05-09T09:13:58.643Z,19.60
2024-05-09T09:16:46.471Z,19.60
2024-05-09T09:19:35.419Z,19.70
2024-05-09T09:22:22.515Z,19.50
2024-05-09T09:25:10.169Z,19.50
2024-05-09T09:27:58.970Z,19.70
2024-05-09T09:30:47.116Z,19.80
2024-05-09T09:33:35.376Z,19.90
2024-05-09T09:36:23.177Z,19.80
2024-05-09T09:39:11.321Z,20.20
2024-05-09T09:42:00.405Z,20.20
2024-05-09T09:44:57.785Z,20.40
2024-05-09T09:47:39.722Z,20.40
2024-05-09T09:50:33.722Z,20.70
2024-05-09T09:53:17.684Z,20.70
2024-05-09T09:56:08.019Z,21.00
2024-05-09T09:58:58.152Z,21.00
2024-05-09T10:01:47.974Z,20.90
2024-05-09T10:04:35.139Z,21.30
2024-05-09T10:07:23.260Z,21.60
2024-05-09T10:10:13.898Z,21.50
2024-05-09T10:13:00.944Z,22.00
2024-05-09T10:15:53.837Z,22.00
2024-05-09T10:18:42.146Z,22.30
2024-05-09T10:21:29.960Z,22.60
2024-05-09T10:24:18.880Z,22.70
2024-05-09T10:27:08.108Z,23.10
2024-05-09T10:29:59.794Z,23.00
2024-05-09T10:32:47.516Z,23.60
2024-05-09T10:35:35.112Z,24.00
2024-05-09T10:38:22.428Z,24.30
2024-05-09T10:41:10.196Z,24.30
2024-05-09T10:43:57.701Z,24.30
2024-05-09T10:46:46.898Z,24.50
2024-05-09T10:49:34.280Z,24.80
2024-05-09T10:52:25.027Z,25.00
2024-05-09T10:55:12.616Z,25.20
2024-05-09T10:58:00.301Z,25.00
2024-05-09T11:00:47.945Z,25.30
2024-05-09T11:03:36.466Z,25.20
2024-05-09T11:06:24.719Z,24.90
2024-05-09T11:09:12.402Z,24.40
2024-05-09T11:12:00.167Z,24.40
2024-05-09T11:14:54.992Z,24.90
2024-05-09T11:17:42.407Z,25.00
2024-05-09T11:20:39.569Z,25.30
2024-05-09T11:23:30.879Z,24.90
2024-05-09T11:26:21.173Z,24.90
2024-05-09T11:29:08.475Z,25.10
2024-05-09T11:31:56.270Z,25.00
2024-05-09T11:34:43.735Z,25.10
2024-05-09T11:37:35.298Z,25.20
2024-05-09T11:40:25.849Z,25.10
2024-05-09T11:43:10.734Z,24.90
2024-05-09T11:45:58.818Z,25.40
2024-05-09T11:48:46.609Z,25.60
2024-05-09T11:51:34.132Z,25.80
2024-05-09T11:54:21.456Z,26.40
2024-05-09T11:57:09.464Z,26.70
2024-05-09T11:59:57.241Z,26.20
2024-05-09T12:02:44.736Z,26.00
2024-05-09T12:05:33.134Z,24.80
2024-05-09T12:08:21.328Z,25.20
2024-05-09T12:11:09.026Z,25.00
2024-05-09T12:13:56.580Z,25.20
2024-05-09T12:16:44.137Z,25.60
2024-05-09T12:19:31.655Z,26.00
2024-05-09T12:22:19.233Z,25.90
2024-05-09T12:25:07.861Z,25.00
2024-05-09T12:27:55.784Z,25.00
2024-05-09T12:30:43.145Z,25.20
2024-05-09T12:33:30.449Z,24.70
2024-05-09T12:36:18.072Z,25.00
2024-05-09T12:39:06.272Z,25.10
2024-05-09T12:41:53.510Z,24.70
2024-05-09T12:44:40.849Z,25.30
2024-05-09T12:47:28.627Z,25.80
2024-05-09T12:50:25.045Z,25.60
2024-05-09T12:53:07.821Z,25.40
2024-05-09T12:55:59.943Z,25.80
2024-05-09T12:58:44.193Z,26.30
2024-05-09T13:01:31.630Z,26.60
2024-05-09T13:04:19.337Z,26.80
2024-05-09T13:07:08.036Z,27.10
2024-05-09T13:09:55.684Z,27.10
2024-05-09T13:12:43.324Z,27.30
2024-05-09T13:15:40.019Z,27.50
2024-05-09T13:18:30.593Z,27.20
2024-05-09T13:21:18.025Z,26.80
2024-05-09T13:24:05.779Z,27.00
2024-05-09T13:26:53.027Z,26.30
2024-05-09T13:29:43.730Z,25.60
2024-05-09T13:32:29.484Z,25.90
2024-05-09T13:35:17.027Z,25.60
2024-05-09T13:38:05.245Z,25.20
2024-05-09T13:40:53.043Z,25.90
2024-05-09T13:43:40.436Z,25.60
2024-05-09T13:46:27.843Z,25.30
2024-05-09T13:49:16.839Z,26.00
2024-05-09T13:52:04.420Z,26.50
2024-05-09T13:54:51.666Z,27.20
2024-05-09T13:57:39.576Z,27.50
2024-05-09T14:00:37.942Z,27.10
2024-05-09T14:03:16.972Z,27.50
2024-05-09T14:06:05.428Z,27.50
2024-05-09T14:08:53.450Z,27.60
2024-05-09T14:11:40.837Z,27.30
2024-05-09T14:14:28.460Z,26.80
2024-05-09T14:17:16.374Z,26.40
2024-05-09T14:20:06.055Z,25.80
2024-05-09T14:22:53.037Z,26.30
2024-05-09T14:25:42.850Z,26.10
2024-05-09T14:28:29.946Z,26.50
2024-05-09T14:31:17.454Z,26.70
2024-05-09T14:34:05.148Z,26.70
2024-05-09T14:36:52.642Z,26.60
2024-05-09T14:39:39.987Z,26.70
2024-05-09T14:42:28.355Z,26.10
2024-05-09T14:45:15.798Z,26.40
2024-05-09T14:48:04.155Z,26.80
2024-05-09T14:50:51.645Z,26.20
2024-05-09T14:53:39.159Z,25.70
2024-05-09T14:56:26.466Z,25.90
2024-05-09T14:59:14.186Z,26.40
2024-05-09T15:02:01.463Z,26.40
2024-05-09T15:04:49.025Z,25.80
2024-05-09T15:07:36.363Z,25.70
2024-05-09T15:10:31.532Z,26.10
2024-05-09T15:13:15.492Z,26.30
2024-05-09T15:16:01.769Z,26.60
2024-05-09T15:18:49.278Z,27.00
2024-05-09T15:21:37.277Z,27.40
2024-05-09T15:24:24.793Z,27.40
2024-05-09T15:27:13.079Z,26.50
2024-05-09T15:30:02.102Z,26.20
2024-05-09T15:32:49.726Z,26.70
2024-05-09T15:35:38.827Z,27.20
2024-05-09T15:38:27.490Z,27.80
2024-05-09T15:41:15.524Z,28.10
2024-05-09T15:44:03.097Z,28.00
2024-05-09T15:46:50.778Z,27.60
2024-05-09T15:49:38.321Z,27.90
2024-05-09T15:52:25.864Z,27.20
2024-05-09T15:55:13.452Z,26.80
2024-05-09T15:58:02.112Z,27.00
2024-05-09T16:00:52.121Z,27.50
2024-05-09T16:03:38.848Z,27.20
2024-05-09T16:06:26.311Z,27.10
2024-05-09T16:09:13.560Z,27.30
2024-05-09T16:12:00.816Z,27.20
2024-05-09T16:14:50.502Z,27.20
2024-05-09T16:17:38.237Z,26.80
2024-05-09T16:20:34.652Z,26.80
2024-05-09T16:23:15.014Z,27.20
2024-05-09T16:26:02.556Z,27.20
2024-05-09T16:28:50.212Z,27.80
2024-05-09T16:31:37.901Z,27.50
2024-05-09T16:34:25.196Z,27.20
2024-05-09T16:37:12.649Z,27.70
2024-05-09T16:39:59.975Z,28.00
2024-05-09T16:42:47.188Z,28.40
2024-05-09T16:45:34.998Z,28.40
2024-05-09T16:48:22.435Z,28.00
2024-05-09T16:51:10.334Z,27.80
2024-05-09T16:53:57.871Z,27.80
2024-05-09T16:56:47.428Z,27.60
2024-05-09T16:59:34.562Z,26.90
2024-05-09T17:02:22.284Z,26.40
2024-05-09T17:05:13.311Z,26.20
2024-05-09T17:08:02.442Z,26.10
2024-05-09T17:10:50.378Z,25.90
2024-05-09T17:13:39.248Z,25.60
2024-05-09T17:16:26.820Z,25.10
2024-05-09T17:19:14.456Z,24.90
2024-05-09T17:22:01.612Z,24.80
2024-05-09T17:24:48.809Z,24.70
2024-05-09T17:27:36.522Z,24.50
2024-05-09T17:30:32.012Z,24.20
2024-05-09T17:33:13.410Z,24.00
2024-05-09T17:36:01.313Z,23.70
2024-05-09T17:38:48.793Z,23.70
2024-05-09T17:41:36.181Z,23.80
2024-05-09T17:44:23.593Z,23.90
2024-05-09T17:47:11.317Z,24.00
2024-05-09T17:49:58.562Z,24.30
2024-05-09T17:52:46.003Z,24.40
2024-05-09T17:55:33.612Z,24.60
2024-05-09T17:58:21.587Z,24.90
2024-05-09T18:01:09.085Z,24.90
2024-05-09T18:03:56.158Z,24.80
2024-05-09T18:06:43.859Z,24.80
2024-05-09T18:09:31.016Z,24.50
2024-05-09T18:12:18.201Z,24.20
2024-05-09T18:15:06.028Z,23.80
2024-05-09T18:17:53.501Z,23.40
2024-05-09T18:20:44.774Z,23.00
2024-05-09T18:23:30.932Z,22.80
2024-05-09T18:26:18.316Z,22.60
2024-05-09T18:29:05.898Z,22.40
2024-05-09T18:31:53.352Z,22.20
2024-05-09T18:34:40.869Z,22.00
2024-05-09T18:37:28.323Z,21.80
2024-05-09T18:40:21.151Z,21.40
2024-05-09T18:43:05.636Z,20.80
2024-05-09T18:45:53.567Z,20.30
2024-05-09T18:48:40.930Z,19.90
2024-05-09T18:51:28.025Z,19.50
2024-05-09T18:54:15.155Z,19.20
2024-05-09T18:57:02.845Z,18.80
2024-05-09T18:59:50.927Z,18.60
2024-05-09T19:02:38.323Z,18.30
2024-05-09T19:05:25.977Z,18.10
2024-05-09T19:08:14.394Z,18.00
2024-05-09T19:11:02.157Z,17.80
2024-05-09T19:13:49.662Z,17.80
2024-05-09T19:16:37.603Z,17.70
2024-05-09T19:19:25.093Z,17.50
2024-05-09T19:22:12.833Z,17.50
2024-05-09T19:25:00.157Z,17.40
2024-05-09T19:27:49.338Z,17.30
2024-05-09T19:30:41.591Z,17.10
2024-05-09T19:33:27.278Z,17.00
2024-05-09T19:36:19.340Z,16.90
2024-05-09T19:39:06.896Z,16.80
2024-05-09T19:41:55.984Z,16.80
2024-05-09T19:44:55.940Z,16.70
2024-05-09T19:47:47.761Z,16.50
2024-05-09T19:50:41.765Z,16.40
2024-05-09T19:53:23.901Z,16.20
2024-05-09T19:56:11.385Z,16.20
2024-05-09T19:58:58.798Z,16.10
2024-05-09T20:01:46.157Z,16.10
2024-05-09T20:04:33.943Z,16.00
2024-05-09T20:07:22.758Z,16.00
2024-05-09T20:10:16.645Z,16.00
2024-05-09T20:12:59.067Z,16.00
2024-05-09T20:15:46.708Z,16.00
2024-05-09T20:18:34.490Z,16.00
2024-05-09T20:21:24.563Z,16.00
2024-05-09T20:24:13.354Z,15.90
2024-05-09T20:27:00.581Z,15.60
2024-05-09T20:29:47.884Z,15.40
2024-05-09T20:32:35.303Z,15.20
2024-05-09T20:35:22.724Z,15.10
2024-05-09T20:38:09.840Z,15.20
2024-05-09T20:40:57.434Z,15.30
2024-05-09T20:43:45.102Z,15.30
2024-05-09T20:46:32.633Z,15.40
2024-05-09T20:49:21.392Z,15.20
2024-05-09T20:52:08.944Z,15.10
2024-05-09T20:54:56.699Z,15.10
2024-05-09T20:57:44.020Z,15.10
2024-05-09T21:00:39.448Z,15.10
2024-05-09T21:03:22.648Z,15.10
2024-05-09T21:06:10.076Z,15.00
2024-05-09T21:08:58.920Z,15.00
2024-05-09T21:11:46.299Z,14.90
2024-05-09T21:14:33.882Z,14.90
2024-05-09T21:17:21.472Z,14.90
2024-05-09T21:20:14.485Z,14.90
2024-05-09T21:22:59.101Z,14.90
2024-05-09T21:25:46.076Z,14.90
2024-05-09T21:28:33.595Z,14.90
2024-05-09T21:31:21.327Z,14.80
2024-05-09T21:34:08.767Z,14.80
2024-05-09T21:36:55.929Z,14.70
2024-05-09T21:39:44.437Z,14.70
2024-05-09T21:42:32.994Z,14.70
2024-05-09T21:45:20.485Z,14.60
2024-05-09T21:48:08.852Z,14.50
2024-05-09T21:50:56.600Z,14.50
2024-05-09T21:53:43.862Z,14.50
2024-05-09T21:56:31.463Z,14.50
2024-05-09T21:59:18.766Z,14.40
2024-05-09T22:02:06.103Z,14.40
2024-05-09T22:04:53.339Z,14.40
2024-05-09T22:07:41.089Z,14.30
2024-05-09T22:10:33.863Z,14.30
2024-05-09T22:13:18.999Z,14.30
2024-05-09T22:16:06.842Z,14.20
2024-05-09T22:18:54.310Z,14.10
2024-05-09T22:21:41.737Z,14.10
2024-05-09T22:24:30.632Z,14.10
2024-05-09T22:27:18.187Z,14.20
2024-05-09T22:30:09.175Z,14.20
2024-05-09T22:32:54.992Z,14.20
2024-05-09T22:35:43.180Z,14.20
2024-05-09T22:38:30.244Z,14.20
2024-05-09T22:41:17.791Z,14.20
2024-05-09T22:44:15.418Z,14.20
2024-05-09T22:47:02.923Z,14.30
2024-05-09T22:49:50.386Z,14.10
2024-05-09T22:52:39.448Z,14.10
2024-05-09T22:55:26.718Z,14.10
2024-05-09T22:58:13.924Z,14.10
2024-05-09T23:01:01.469Z,14.00
2024-05-09T23:03:50.167Z,13.90
2024-05-09T23:06:41.190Z,13.70
2024-05-09T23:09:28.568Z,13.50
2024-05-09T23:12:17.444Z,13.50
2024-05-09T23:15:04.975Z,13.50
2024-05-09T23:17:52.707Z,13.40
2024-05-09T23:20:40.567Z,13.40
2024-05-09T23:23:28.504Z,13.30
2024-05-09T23:26:15.908Z,13.30
2024-05-09T23:29:03.468Z,13.20
2024-05-09T23:31:50.584Z,13.20
2024-05-09T23:34:37.843Z,13.10
2024-05-09T23:37:25.870Z,13.00
2024-05-09T23:40:18.728Z,12.80
2024-05-09T23:43:03.933Z,12.80
2024-05-09T23:45:51.014Z,12.80
2024-05-09T23:48:38.760Z,12.80
2024-05-09T23:51:26.305Z,12.90
2024-05-09T23:54:13.526Z,12.90
2024-05-09T23:57:00.865Z,13.00
2024-05-09T23:59:48.223Z,13.00
